Home > Products > Valid Products > TAF

000
FTUS43 KMPX 201100
TAFRWF
TAF
KRWF 201120Z 2012/2112 02003KT 6SM BR BKN090
     FM201400 07004KT P6SM SCT250
     FM202000 11005KT P6SM SCT090 SCT250 PROB30 2101/2105 5SM -SHRA
      OVC040
     FM210900 30004KT P6SM BKN100=



000
FTUS43 KMPX 201100
TAFMSP
TAF
KMSP 201120Z 2012/2118 VRB02KT 4SM BR BKN060 OVC100
      TEMPO 2012/2013 1 1/2SM BR
     FM201330 07004KT P6SM BKN100
     FM201800 08006KT P6SM SCT050 SCT250
     FM210300 09005KT P6SM VCSH SCT050 BKN100
     FM210700 12003KT P6SM BKN100
      TEMPO 2110/2113 5SM -SHRA BR
     FM211300 29007KT P6SM BKN110=



000
FTUS43 KMPX 201100
TAFAXN
TAF
KAXN 201120Z 2012/2112 08005KT P6SM SKC
     FM201800 11006KT P6SM SCT250
     FM210400 12007KT P6SM SCT100 BKN250
     FM210800 23007KT P6SM BKN100=



000
FTUS43 KMPX 201100
TAFEAU
TAF
KEAU 201120Z 2012/2112 20003KT P6SM VCSH OVC070
     FM201500 21004KT P6SM BKN060
     FM202100 06004KT P6SM SCT060 BKN150
     FM210100 07002KT P6SM VCSH BKN060 PROB30 2108/2112 4SM -SHRA
      OVC050CB=



000
FTUS43 KMPX 201100
TAFSTC
TAF
KSTC 201120Z 2012/2112 VRB02KT 4SM BR SCT250
      TEMPO 2012/2013 3/4SM BR SCT002
     FM201330 05003KT P6SM SCT250
     FM201900 08005KT P6SM SKC
     FM210600 10003KT P6SM BKN250=



000
FTUS43 KMPX 200900 AAB
TAFMSP
TAF AMD
KMSP 200952Z 2010/2112 VRB02KT 6SM BR VCSH BKN060 OVC100
     FM201100 00000KT 4SM BR SCT070 BKN250
     FM201300 07004KT P6SM SCT250
     FM202200 09006KT P6SM SCT050
     FM210700 11003KT P6SM VCSH SCT050 BKN100=



000
FTUS43 KMPX 200900 AAA
TAFSTC
TAF AMD
KSTC 200950Z 2010/2106 VRB02KT 3SM BR SCT250
      TEMPO 2010/2013 1/2SM FG VV002
     FM201330 05003KT P6SM FEW002
      TEMPO 2014/2015 5SM BR
     FM201500 07004KT P6SM SCT250=



000
FTUS43 KMPX 200800 AAA
TAFMSP
TAF AMD
KMSP 200846Z 2009/2112 VRB03KT 4SM BR VCSH OVC060
     FM201100 00000KT 4SM BR SCT070 BKN250
     FM201300 07004KT P6SM SCT250
     FM202200 09006KT P6SM SCT050
     FM210700 11003KT P6SM VCSH SCT050 BKN100=



000
FTUS43 KMPX 200500 CCA
TAFSTC
TAF COR
KSTC 200527Z 2006/2106 00000KT 2SM BR SCT250
      TEMPO 2006/2009 1/2SM FG VV002
     FM200900 00000KT 3/4SM BR SCT001
      TEMPO 2009/2013 1/4SM FG VV001
     FM201330 05003KT P6SM FEW002
      TEMPO 2014/2015 5SM BR
     FM201500 07004KT P6SM SCT250=



000
FTUS43 KMPX 200500
TAFEAU
TAF
KEAU 200525Z 2006/2106 18008KT P6SM VCSH SCT035 OVC060
      TEMPO 2006/2010 4SM -SHRA BR
     FM201000 20003KT P6SM VCSH OVC060
     FM201400 21004KT P6SM SCT060 BKN200
     FM202100 06004KT P6SM SCT060
     FM210100 07002KT P6SM BKN060=



000
FTUS43 KMPX 200500
TAFSTC
TAF
KSTC 200525Z 2006/2106 00000KT 2SM BR SCT250
      TEMPO 2006/2009 1/2SM FG SCT001
     FM200900 00000KT 3/4SM BR SCT001
      TEMPO 2009/2013 1/4SM FG VV001
     FM201330 05003KT P6SM FEW002
      TEMPO 2014/2015 5SM BR
     FM201500 07004KT P6SM SCT250=



000
FTUS43 KMPX 200500
TAFMSP
TAF
KMSP 200525Z 2006/2112 VRB03KT P6SM VCSH OVC060
      TEMPO 2006/2008 5SM -SHRA BR
     FM201000 00000KT 4SM BR SCT070 BKN250
     FM201300 07004KT P6SM SCT250
     FM202200 09006KT P6SM SCT050
     FM210700 11003KT P6SM VCSH SCT050 BKN100=



000
FTUS43 KMPX 200500
TAFAXN
TAF
KAXN 200525Z 2006/2106 21003KT P6SM SCT250
     FM201200 08003KT P6SM SKC
     FM201800 13006KT P6SM FEW100 SCT250
     FM210200 12007KT P6SM SCT100 BKN200=



000
FTUS43 KMPX 200500
TAFRWF
TAF
KRWF 200525Z 2006/2106 20003KT P6SM BKN080
     FM201500 09005KT P6SM SCT250
     FM202000 11007KT P6SM SCT090 SCT250=



000
FTUS43 KMPX 200300 AAA
TAFSTC
TAF AMD
KSTC 200349Z 2004/2024 00000KT 3SM BR SKC
      TEMPO 2004/2008 1/2SM FG SCT001
     FM200800 00000KT 1 1/2SM BR SCT001
      TEMPO 2009/2013 1/4SM FG VV001
     FM201330 10003KT P6SM FEW002
      TEMPO 2014/2015 5SM BR
     FM201500 11004KT P6SM SKC=



000
FTUS43 KMPX 200200 AAA
TAFMSP
TAF AMD
KMSP 200255Z 2003/2106 VRB03KT P6SM VCSH OVC060
     FM201000 VRB03KT P6SM FEW200
     FM201500 07004KT P6SM SKC
     FM202200 09006KT P6SM BKN060=



000
FTUS43 KMPX 192300 RRA
TAFSTC
TAF
KSTC 192339Z 2000/2024 VRB03KT P6SM SCT200
     FM200400 VRB03KT P6SM SKC
     FM201500 11004KT P6SM SKC=



000
FTUS43 KMPX 192300 RRA
TAFEAU
TAF
KEAU 192339Z 2000/2024 18008KT P6SM VCSH SCT035 OVC070
     FM200900 19005KT P6SM -SHRA OVC060
     FM201400 19004KT P6SM SCT060
     FM202000 05004KT P6SM BKN070=



000
FTUS43 KMPX 192300 RRA
TAFMSP
TAF
KMSP 192339Z 2000/2106 17005KT P6SM VCSH OVC060
     FM200400 VRB03KT P6SM -SHRA OVC060
     FM201000 VRB03KT P6SM FEW200
     FM201500 07004KT P6SM SKC
     FM202200 09006KT P6SM BKN060=



000
FTUS43 KMPX 192300 RRA
TAFRWF
TAF
KRWF 192339Z 2000/2024 30005KT P6SM SCT100 SCT250
     FM200400 VRB03KT P6SM SCT250
     FM201500 10005KT P6SM SKC
     FM202000 10005KT P6SM BKN060=



000
FTUS43 KMPX 192300 RRA
TAFAXN
TAF
KAXN 192339Z 2000/2024 24006KT P6SM SKC
     FM200900 VRB03KT P6SM SKC
     FM201800 15005KT P6SM SKC=



000
FTUS43 KMPX 192100 AAA
TAFMSP
TAF AMD
KMSP 192101Z 1921/2024 18014G21KT P6SM SCT060 OVC070
      TEMPO 1921/1924 -SHRA OVC060
     FM200000 23011G17KT P6SM VCSH SCT040 OVC060
     FM200200 21009KT P6SM SCT060 BKN100
     FM200600 25005KT P6SM SCT200
     FM201400 03004KT P6SM SCT070 BKN200
     FM201900 10008KT P6SM SCT060 BKN120=



000
FTUS43 KMPX 191900 AAA
TAFRWF
TAF AMD
KRWF 191927Z 1919/2018 24015KT P6SM SCT060 BKN100
     FM192200 28010KT P6SM SCT050 BKN100
     FM200000 24006KT P6SM SCT100 SCT250
     FM200400 VRB03KT P6SM SCT250
     FM201500 10006KT P6SM BKN250=



000
FTUS43 KMPX 191900 AAA
TAFSTC
TAF AMD
KSTC 191922Z 1919/2018 19005KT P6SM VCSH SCT040 BKN090
     FM192100 25011KT P6SM SCT100 BKN250
     FM200400 VRB03KT P6SM SKC
     FM201400 11006KT P6SM SKC=



000
FTUS43 KMPX 191800 AAA
TAFAXN
TAF AMD
KAXN 191803Z 1918/2018 25015KT P6SM SCT100
     FM200000 26005KT P6SM SKC
     FM200400 VRB03KT P6SM SKC
     FM201300 13007KT P6SM SKC=



000
FTUS43 KMPX 191700
TAFSTC
TAF
KSTC 191735Z 1918/2018 19015G22KT P6SM VCSH SCT040 BKN090
     FM192100 25011KT P6SM SCT100 BKN250
     FM200400 VRB03KT P6SM SKC
     FM201400 11006KT P6SM SKC=



000
FTUS43 KMPX 191700
TAFEAU
TAF
KEAU 191735Z 1918/2018 17017G24KT P6SM SCT070 BKN130
     FM200000 18015G25KT P6SM VCSH SCT035 OVC060
      TEMPO 2000/2004 6SM -SHRA BKN040
     FM200400 18008KT P6SM SCT060 BKN100
     FM200800 23004KT P6SM BKN100=



000
FTUS43 KMPX 191700
TAFRWF
TAF
KRWF 191735Z 1918/2018 21019G28KT P6SM SCT060 BKN100
     FM192200 28010KT P6SM SCT050 BKN100
     FM200000 24006KT P6SM SCT100 SCT250
     FM200400 VRB03KT P6SM SCT250
     FM201500 10006KT P6SM BKN250=



000
FTUS43 KMPX 191700
TAFAXN
TAF
KAXN 191735Z 1918/2018 20015G21KT P6SM SCT040 BKN120
     FM191900 23013KT P6SM SCT100
     FM200000 26005KT P6SM SKC
     FM200400 VRB03KT P6SM SKC
     FM201300 13007KT P6SM SKC=



000
FTUS43 KMPX 191700
TAFMSP
TAF
KMSP 191735Z 1918/2024 17014G22KT P6SM OVC070
     FM191900 20014G24KT P6SM SCT060 OVC070
     FM192300 23011G17KT P6SM VCSH SCT040 OVC060
     FM200200 21009KT P6SM SCT060 BKN100
     FM200600 25005KT P6SM SCT200
     FM201400 03004KT P6SM SCT070 BKN200
     FM201900 10008KT P6SM SCT060 BKN120=



000
FTUS43 KMPX 191600 AAA
TAFAXN
TAF AMD
KAXN 191641Z 1917/2012 19016G26KT P6SM SCT040 BKN120
     FM191900 23013KT P6SM SCT100
     FM200000 26005KT P6SM SKC
     FM200800 30005KT P6SM SKC=



000
FTUS43 KMPX 191400 AAA
TAFMSP
TAF AMD
KMSP 191430Z 1915/2018 14019G29KT P6SM SCT070 BKN150
     FM191600 16017G27KT P6SM SCT060 BKN100
     FM191900 19014G24KT P6SM VCSH SCT040 OVC070
      TEMPO 1919/1923 6SM -SHRA BKN040
     FM200100 21006KT P6SM SCT060 BKN100
     FM200600 25005KT P6SM SCT100 BKN250
     FM201400 03004KT P6SM SCT250=



000
FTUS43 KMPX 191100
TAFEAU
TAF
KEAU 191120Z 1912/2012 15014G21KT P6SM SCT070 BKN130
     FM191700 17019G28KT P6SM SCT070 BKN130
     FM192100 18015G25KT P6SM VCSH SCT035 OVC060
      TEMPO 1923/2002 6SM -SHRA BKN040
     FM200200 18008KT P6SM SCT060 BKN100
     FM200800 23004KT P6SM BKN100=



000
FTUS43 KMPX 191100
TAFAXN
TAF
KAXN 191120Z 1912/2012 15022G32KT P6SM VCSH SCT050 OVC080
      TEMPO 1912/1914 6SM -SHRA BKN050
     FM191500 19016G26KT P6SM SCT040 BKN090
     FM191900 23013KT P6SM SCT100
     FM200000 26005KT P6SM SKC
     FM200800 30005KT P6SM SKC=



000
FTUS43 KMPX 191100
TAFMSP
TAF
KMSP 191120Z 1912/2018 14019G29KT P6SM SCT070 BKN150
     FM191600 16017G27KT P6SM SCT060 BKN100
     FM191900 19014G24KT P6SM VCSH SCT040 OVC070
      TEMPO 1919/1923 6SM -SHRA BKN040
     FM200100 21006KT P6SM SCT060 BKN100
     FM200600 25005KT P6SM SCT100 BKN250
     FM201400 03004KT P6SM SCT250=



000
FTUS43 KMPX 191100
TAFRWF
TAF
KRWF 191120Z 1912/2012 15019G29KT P6SM SCT050 BKN100
     FM191400 19015G25KT P6SM VCSH SCT050 BKN100
     FM192100 28010KT P6SM SCT050 BKN100
     FM200000 24006KT P6SM SCT100 SCT250=



000
FTUS43 KMPX 191100
TAFSTC
TAF
KSTC 191120Z 1912/2012 14016G26KT P6SM VCSH SCT050 BKN080
      TEMPO 1912/1915 6SM -SHRA BKN050
     FM191700 19015G25KT P6SM VCSH SCT040 BKN090
     FM192100 25011KT P6SM SCT100 BKN250
     FM200300 24005KT P6SM SKC=



000
FTUS43 KMPX 190800 AAA
TAFMSP
TAF AMD
KMSP 190848Z 1909/2012 13015G27KT P6SM SCT080 BKN150
     FM191300 15018G26KT P6SM BKN060 BKN100
     FM191700 19014G20KT P6SM VCSH SCT040 OVC060 PROB30 1919/1922
      5SM -SHRA OVC040
     FM200000 21007KT P6SM SCT060 BKN100=



000
FTUS43 KMPX 190500
TAFSTC
TAF
KSTC 190538Z 1906/2006 10009KT P6SM SCT060 BKN150
     FM190900 15014G23KT P6SM VCSH OVC060
      TEMPO 1910/1914 6SM -SHRA BKN040 OVC060
     FM191700 20013G18KT P6SM SCT040 BKN050
     FM192200 23011KT P6SM SCT100
     FM200300 24005KT P6SM SKC=



000
FTUS43 KMPX 190500
TAFRWF
TAF
KRWF 190538Z 1906/2006 12017G27KT P6SM BKN150
     FM191000 16016G26KT P6SM SCT050 BKN100
     FM191500 19014G22KT P6SM VCSH BKN060
     FM192000 23013KT P6SM SCT100=



000
FTUS43 KMPX 190500
TAFAXN
TAF
KAXN 190538Z 1906/2006 13018G27KT P6SM FEW060 BKN150
     FM190800 15017G25KT P6SM VCSH OVC060
      TEMPO 1909/1912 5SM -TSRA BKN040CB OVC060
     FM191500 20015G22KT P6SM SCT040 BKN050
     FM192200 23013KT P6SM SCT100
     FM200300 24005KT P6SM SKC=



000
FTUS43 KMPX 190500
TAFEAU
TAF
KEAU 190538Z 1906/2006 10008KT P6SM BKN150
     FM191100 15014KT P6SM FEW060 BKN100
     FM191800 17016G25KT P6SM BKN070
     FM192100 18015G23KT P6SM VCSH SCT035 OVC060
      TEMPO 1923/2002 5SM -SHRA OVC040
     FM200300 19008KT P6SM SCT060 BKN100=



000
FTUS43 KMPX 190500
TAFMSP
TAF
KMSP 190538Z 1906/2012 11013KT P6SM BKN150
     FM191000 14013G22KT P6SM VCSH FEW060 BKN100
     FM191300 17019G26KT P6SM BKN060 BKN100
     FM191700 19014G20KT P6SM VCSH SCT040 OVC060 PROB30 1919/1922
      5SM -SHRA OVC040
     FM200000 21007KT P6SM SCT060 BKN100=



000
FTUS43 KMPX 190200 AAA
TAFSTC
TAF AMD
KSTC 190245Z 1903/1924 10009KT P6SM SCT060 BKN100
     FM190900 15012G21KT P6SM VCSH OVC060
      TEMPO 1910/1914 5SM -SHRA BKN035 OVC050
     FM191700 20015G22KT P6SM SCT035 BKN050
     FM192200 23013KT P6SM SCT100=



000
FTUS43 KMPX 190200 AAA
TAFMSP
TAF AMD
KMSP 190243Z 1903/2006 11013KT P6SM BKN120
     FM191000 14013G22KT P6SM VCSH SCT050 BKN100
     FM191300 17019G27KT P6SM BKN050 BKN100
     FM191800 19014G21KT P6SM VCSH SCT035 OVC060 PROB30 1919/1923
      5SM -SHRA OVC040
     FM200000 23007KT P6SM SCT060 BKN100=



000
FTUS43 KMPX 190100 AAA
TAFAXN
TAF AMD
KAXN 190134Z 1902/1924 13016G24KT P6SM SCT060 BKN100
     FM190700 15017G25KT P6SM VCSH OVC060
      TEMPO 1909/1912 5SM -TSRA BKN035CB OVC050
     FM191500 20015G22KT P6SM SCT035 BKN050
     FM192200 23013KT P6SM SCT100=



000
FTUS43 KMPX 190100 AAA
TAFRWF
TAF AMD
KRWF 190133Z 1902/1924 13016G25KT P6SM BKN100
     FM191000 16017G27KT P6SM SCT050 BKN100
     FM191500 19015G23KT P6SM VCSH BKN060
     FM192200 23013KT P6SM SCT100=



000
FTUS43 KMPX 182300 RRA
TAFEAU
TAF
KEAU 182345Z 1900/1924 11008KT P6SM BKN100
     FM191100 15013G21KT P6SM SCT050 BKN100
     FM191800 17016G25KT P6SM BKN070
     FM192100 18015G23KT P6SM VCSH SCT035 OVC060
      TEMPO 1922/1923 5SM -SHRA OVC040
     FM192300 23007KT P6SM SCT060 BKN100=



000
FTUS43 KMPX 182300 RRA
TAFSTC
TAF
KSTC 182345Z 1900/1924 12012KT P6SM SCT060 BKN100
     FM190800 15017G25KT P6SM VCSH OVC060
      TEMPO 1910/1914 5SM -SHRA BKN035 OVC050
     FM191700 20015G22KT P6SM SCT035 BKN050
     FM192200 23013KT P6SM SCT100=



000
FTUS43 KMPX 182300 RRA
TAFAXN
TAF
KAXN 182345Z 1900/1924 13016G24KT P6SM SCT060 BKN100
     FM190700 15017G25KT P6SM VCSH OVC060
      TEMPO 1909/1912 5SM -SHRA BKN035 OVC050
     FM191500 20015G22KT P6SM SCT035 BKN050
     FM192200 23013KT P6SM SCT100=



000
FTUS43 KMPX 182300 RRA
TAFMSP
TAF
KMSP 182345Z 1900/2006 11013G20KT P6SM BKN120
     FM191000 14013G25KT P6SM VCSH SCT050 BKN100
     FM191300 17019G28KT P6SM BKN050 BKN100
     FM191800 19014G21KT P6SM VCSH SCT035 OVC060 PROB30 1919/1923
      5SM -SHRA OVC040
     FM200000 23007KT P6SM SCT060 BKN100=



000
FTUS43 KMPX 182300 RRA
TAFRWF
TAF
KRWF 182345Z 1900/1924 13020G30KT P6SM BKN100
     FM191000 16017G27KT P6SM SCT050 BKN100
     FM191500 19015G23KT P6SM VCSH BKN060
     FM192200 23013KT P6SM SCT100=



000
FTUS43 KMPX 182000 AAA
TAFMSP
TAF AMD
KMSP 182058Z 1821/1924 11012G18KT P6SM BKN120
     FM190900 14013G23KT P6SM SCT050 BKN100
     FM191200 17019G28KT P6SM BKN050 BKN100
     FM191800 19017G25KT P6SM VCSH SCT020 OVC040=



000
FTUS43 KMPX 181700
TAFRWF
TAF
KRWF 181729Z 1818/1918 14019G26KT P6SM SCT070 BKN100
     FM190000 13015G24KT P6SM BKN100
     FM191000 16017G27KT P6SM SCT050 BKN100
     FM191500 19015G21KT P6SM VCSH SCT020 OVC040=



000
FTUS43 KMPX 181700
TAFAXN
TAF
KAXN 181729Z 1818/1918 13016G24KT P6SM BKN050 OVC100
     FM190900 15017G25KT 6SM -SHRA BR SCT025 OVC035
     FM191200 16017G25KT 5SM -SHRA BR SCT015 OVC025
     FM191400 20015G21KT P6SM SCT020 OVC040=



000
FTUS43 KMPX 181700
TAFMSP
TAF
KMSP 181729Z 1818/1924 12012G18KT P6SM SCT070 BKN120
     FM182300 13013G21KT P6SM SCT090 BKN110
     FM190900 14013G23KT P6SM SCT050 BKN100
     FM191500 17015G25KT P6SM BKN050 BKN100
     FM191800 19019G28KT P6SM VCSH SCT020 OVC040=



000
FTUS43 KMPX 181700
TAFSTC
TAF
KSTC 181729Z 1818/1918 14011G19KT P6SM BKN100
     FM182100 12012G19KT P6SM SCT050 BKN100
     FM191100 15017G25KT 6SM -SHRA BR SCT025 OVC035
     FM191400 16017G25KT 5SM -SHRA BR SCT015 OVC025
     FM191700 19015G21KT P6SM SCT020 OVC040=



000
FTUS43 KMPX 181700
TAFEAU
TAF
KEAU 181729Z 1818/1918 07004KT P6SM BKN100
     FM181930 11008KT P6SM BKN100
     FM191100 15013G21KT P6SM SCT050 BKN100=



000
FTUS43 KMPX 181400 AAA
TAFMSP
TAF AMD
KMSP 181427Z 1814/1918 10007KT P6SM BKN080
     FM181800 11012G18KT P6SM SCT100 BKN200
     FM182300 13013G21KT P6SM SCT090 BKN150
     FM190900 14013G23KT P6SM SCT050 BKN100
     FM191500 16015G25KT P6SM BKN050 BKN100=



000
FTUS43 KMPX 181100
TAFAXN
TAF
KAXN 181120Z 1812/1912 12006KT P6SM BKN060 OVC090
     FM181600 13016G24KT P6SM FEW050 BKN100
     FM182300 13017G27KT P6SM SCT100 BKN200
     FM190500 13016G25KT P6SM BKN050 OVC090
     FM190700 14017G25KT 5SM -SHRA BR SCT015 OVC025=



000
FTUS43 KMPX 181100
TAFMSP
TAF
KMSP 181120Z 1812/1918 10002KT 6SM BR SCT100 BKN250
     FM181300 10007KT P6SM SCT040 OVC070
     FM181800 11012G18KT P6SM SCT100 BKN200
     FM182300 13013G21KT P6SM SCT090 BKN150
     FM190900 14013G23KT P6SM SCT050 BKN100
     FM191500 16015G25KT P6SM BKN050 BKN100=



000
FTUS43 KMPX 181100
TAFSTC
TAF
KSTC 181120Z 1812/1912 12003KT 6SM BR BKN070 OVC100
     FM181300 12006KT P6SM BKN070 OVC100
     FM181700 12011KT P6SM SCT100 BKN200
     FM182100 12012G19KT P6SM SCT050 BKN100
     FM191100 13014G23KT 5SM -SHRA BR SCT020 OVC040=



000
FTUS43 KMPX 181100
TAFEAU
TAF
KEAU 181120Z 1812/1912 00000KT 6SM BR SCT200
     FM181400 07004KT P6SM SCT100 BKN250
     FM181900 10008KT P6SM BKN100
     FM182300 10011KT P6SM SCT100 BKN250=



000
FTUS43 KMPX 181100
TAFRWF
TAF
KRWF 181120Z 1812/1912 13005KT P6SM SCT040 OVC070
     FM181600 13013G20KT P6SM SCT080 BKN200
     FM181800 14019G28KT P6SM SCT100 SCT250
     FM190000 13015G21KT P6SM SCT100 BKN200
     FM191000 16017G27KT P6SM SCT050 BKN100=



000
FTUS43 KMPX 181000 AAA
TAFEAU
TAF AMD
KEAU 181040Z 1811/1906 00000KT 6SM BR SCT200
     FM181400 07005KT P6SM BKN090
     FM181900 11009KT P6SM SCT100 SCT250=



000
FTUS43 KMPX 180800 AAA
TAFMSP
TAF AMD
KMSP 180849Z 1809/1912 VRB02KT 6SM BR SCT250
     FM181100 VRB02KT P6SM BKN100
     FM181300 11006KT P6SM BKN070
     FM181900 11012G18KT P6SM SCT100 BKN200
     FM190000 13014G22KT P6SM SCT100 BKN200=



000
FTUS43 KMPX 180500
TAFSTC
TAF
KSTC 180527Z 1806/1906 VRB02KT P6SM SCT250
     FM180900 14003KT 5SM BR BKN080
     FM181300 13007KT P6SM BKN070
     FM181900 13012G19KT P6SM SCT100 BKN200=



000
FTUS43 KMPX 180500
TAFRWF
TAF
KRWF 180527Z 1806/1906 13003KT P6SM BKN100
     FM180900 13005KT P6SM SCT040 BKN090
     FM181500 13013G20KT P6SM SCT100 BKN200
     FM181800 14019G28KT P6SM SCT100 SCT250
     FM190000 13015G21KT P6SM SCT100 BKN200=



000
FTUS43 KMPX 180500
TAFAXN
TAF
KAXN 180527Z 1806/1906 VRB03KT P6SM SCT080
     FM180700 18005KT P6SM BKN060
     FM181600 13017G24KT P6SM FEW040 BKN100
     FM182300 13020G28KT P6SM SCT100 BKN200=



000
FTUS43 KMPX 180500
TAFMSP
TAF
KMSP 180527Z 1806/1912 VRB02KT P6SM SCT250
     FM181000 VRB03KT P6SM BKN100
     FM181300 11006KT P6SM BKN070
     FM181900 11012G18KT P6SM SCT100 BKN200
     FM190000 13014G22KT P6SM SCT100 BKN200=



000
FTUS43 KMPX 180500
TAFEAU
TAF
KEAU 180527Z 1806/1906 00000KT P6SM SKC
     FM180700 00000KT 2SM BR SCT002
     FM181300 07005KT P6SM BKN090
     FM181900 11009KT P6SM SCT100 SCT250=



000
FTUS43 KMPX 180200 AAA
TAFMSP
TAF AMD
KMSP 180250Z 1803/1906 VRB02KT P6SM SKC
     FM180400 VRB02KT P6SM BKN150
     FM181300 10006KT P6SM BKN070
     FM181900 11012G18KT P6SM BKN070
     FM182300 13014G20KT P6SM SCT150=



000
FTUS43 KMPX 172300
TAFEAU
TAF
KEAU 172338Z 1800/1824 35006KT P6SM SCT015 BKN030
     FM180200 VRB02KT P6SM SKC
     FM181400 08006KT P6SM BKN090=



000
FTUS43 KMPX 172300
TAFRWF
TAF
KRWF 172338Z 1800/1824 VRB04KT P6SM SCT100
     FM180600 12004KT P6SM BKN100
     FM181400 13012G18KT P6SM BKN090
     FM181800 14018G25KT P6SM BKN090=



000
FTUS43 KMPX 172300
TAFMSP
TAF
KMSP 172338Z 1800/1906 31004KT P6SM SKC
     FM180400 VRB02KT P6SM BKN150
     FM181300 10006KT P6SM BKN070
     FM181900 11012G18KT P6SM BKN070
     FM182300 13014G20KT P6SM SCT150=



000
FTUS43 KMPX 172300
TAFSTC
TAF
KSTC 172338Z 1800/1824 VRB02KT P6SM SCT250
     FM180800 12004KT 5SM BR BKN090
     FM181400 13008KT P6SM BKN090
     FM181900 12012G19KT P6SM BKN090=



000
FTUS43 KMPX 172300
TAFAXN
TAF
KAXN 172338Z 1800/1824 VRB02KT P6SM SCT100
     FM180600 12006KT P6SM BKN090
     FM181500 13017G24KT P6SM SCT040 BKN090=



000
FTUS43 KMPX 172000 AAB
TAFMSP
TAF AMD
KMSP 172016Z 1720/1824 31007KT P6SM SCT030 SCT250
     FM180000 VRB02KT P6SM SCT250
     FM181000 10006KT P6SM BKN060
     FM181900 11013KT P6SM BKN080=



000
FTUS43 KMPX 171900 AAA
TAFEAU
TAF AMD
KEAU 171929Z 1719/1818 33009KT P6SM SCT015 BKN030
     FM180000 34004KT P6SM SCT030
     FM180600 VRB02KT P6SM SKC
     FM181200 05004KT P6SM BKN090=



000
FTUS43 KMPX 171900 AAA
TAFMSP
TAF AMD
KMSP 171928Z 1719/1824 31009KT P6SM BKN025
     FM172100 33008KT P6SM SCT030
     FM180000 35004KT P6SM SCT250
     FM180400 VRB02KT P6SM FEW200
     FM181000 10005KT P6SM BKN060
     FM181900 11013KT P6SM BKN080=



000
FTUS43 KMPX 171700
TAFAXN
TAF
KAXN 171737Z 1718/1818 36008KT P6SM SKC
     FM180000 VRB02KT P6SM SCT250
     FM180600 12006KT P6SM BKN080
     FM181500 13016G23KT P6SM VCSH SCT040 OVC070=



000
FTUS43 KMPX 171700
TAFEAU
TAF
KEAU 171737Z 1718/1818 31011KT P6SM OVC014
     FM172200 31009KT P6SM BKN025
     FM180000 34004KT P6SM SCT030
     FM180600 VRB02KT P6SM SKC
     FM181200 05004KT P6SM BKN090=



000
FTUS43 KMPX 171700
TAFSTC
TAF
KSTC 171737Z 1718/1818 35005KT P6SM SKC
     FM180000 00000KT P6SM SCT120
     FM180900 12003KT P6SM BKN080
     FM181500 12012G19KT P6SM OVC070=



000
FTUS43 KMPX 171700
TAFRWF
TAF
KRWF 171737Z 1718/1818 34007KT P6SM SKC
     FM180200 VRB03KT P6SM BKN100
     FM180800 12008KT P6SM BKN070
     FM181400 13019G26KT P6SM OVC070=



000
FTUS43 KMPX 171700
TAFMSP
TAF
KMSP 171737Z 1718/1824 33009KT P6SM BKN020
     FM171930 33008KT P6SM SCT030
     FM180000 35004KT P6SM SCT250
     FM180400 VRB02KT P6SM FEW200
     FM181000 10005KT P6SM BKN060
     FM181900 11013KT P6SM BKN080=



000
FTUS43 KMPX 171500 AAA
TAFEAU
TAF AMD
KEAU 171559Z 1716/1812 32010KT P6SM OVC008
     FM171800 31009KT P6SM BKN015
     FM172200 31009KT P6SM BKN025
     FM180000 32004KT P6SM SCT030
     FM180800 VRB02KT P6SM SCT250=



000
FTUS43 KMPX 171400 AAA
TAFMSP
TAF AMD
KMSP 171453Z 1715/1818 33012KT P6SM OVC015
     FM171700 33009KT P6SM OVC025
     FM172000 33008KT P6SM SCT030
     FM180000 32006KT P6SM SCT250
     FM180600 VRB02KT P6SM SCT200
     FM181200 10005KT P6SM BKN070=



    US Dept of Commerce
    National Oceanic and Atmospheric Administration
    National Weather Service
    1325 East West Highway
    Silver Spring, MD 20910
    Page Author: NWS Internet Services Team
Disclaimer
Information Quality
Credits
Glossary
Privacy Policy
Freedom of Information Act (FOIA)
About Us
Career Opportunities